Map

Track Data

SID SEASON NUMBER BASIN SUBBASIN NAME ISO_TIME NATURE LAT LON WMO_WIND WMO_PRES WMO_AGENCY TRACK_TYPE DIST2LAND LANDFALL IFLAG USA_AGENCY USA_ATCF_ID USA_LAT USA_LON USA_RECORD USA_STATUS USA_WIND USA_PRES USA_SSHS USA_R34_NE USA_R34_SE USA_R34_SW USA_R34_NW USA_R50_NE USA_R50_SE USA_R50_SW USA_R50_NW USA_R64_NE USA_R64_SE USA_R64_SW USA_R64_NW USA_POCI USA_ROCI USA_RMW USA_EYE TOKYO_LAT TOKYO_LON TOKYO_GRADE TOKYO_WIND TOKYO_PRES TOKYO_R50_DIR TOKYO_R50_LONG TOKYO_R50_SHORT TOKYO_R30_DIR TOKYO_R30_LONG TOKYO_R30_SHORT TOKYO_LAND CMA_LAT CMA_LON CMA_CAT CMA_WIND CMA_PRES HKO_LAT HKO_LON HKO_CAT HKO_WIND HKO_PRES NEWDELHI_LAT NEWDELHI_LON NEWDELHI_GRADE NEWDELHI_WIND NEWDELHI_PRES NEWDELHI_CI NEWDELHI_DP NEWDELHI_POCI REUNION_LAT REUNION_LON REUNION_TYPE REUNION_WIND REUNION_PRES REUNION_TNUM REUNION_CI REUNION_RMW REUNION_R34_NE REUNION_R34_SE REUNION_R34_SW REUNION_R34_NW REUNION_R50_NE REUNION_R50_SE REUNION_R50_SW REUNION_R50_NW REUNION_R64_NE REUNION_R64_SE REUNION_R64_SW REUNION_R64_NW BOM_LAT BOM_LON BOM_TYPE BOM_WIND BOM_PRES BOM_TNUM BOM_CI BOM_RMW BOM_R34_NE BOM_R34_SE BOM_R34_SW BOM_R34_NW BOM_R50_NE BOM_R50_SE BOM_R50_SW BOM_R50_NW BOM_R64_NE BOM_R64_SE BOM_R64_SW BOM_R64_NW BOM_ROCI BOM_POCI BOM_EYE BOM_POS_METHOD BOM_PRES_METHOD NADI_LAT NADI_LON NADI_CAT NADI_WIND NADI_PRES WELLINGTON_LAT WELLINGTON_LON WELLINGTON_WIND WELLINGTON_PRES DS824_LAT DS824_LON DS824_STAGE DS824_WIND DS824_PRES TD9636_LAT TD9636_LON TD9636_STAGE TD9636_WIND TD9636_PRES TD9635_LAT TD9635_LON TD9635_WIND TD9635_PRES TD9635_ROCI NEUMANN_LAT NEUMANN_LON NEUMANN_CLASS NEUMANN_WIND NEUMANN_PRES MLC_LAT MLC_LON MLC_CLASS MLC_WIND MLC_PRES USA_GUST BOM_GUST BOM_GUST_PER REUNION_GUST REUNION_GUST_PER USA_SEAHGT USA_SEARAD_NE USA_SEARAD_SE USA_SEARAD_SW USA_SEARAD_NW STORM_SPEED STORM_DIR
1988265N12218 1988 84 EP CP WILA 1988-09-21 00:00:00 TS 12.2000 -142.000 25 hurdat_epa main 1593 1554 O_________O___ hurdat_epa CP021988 12.2000 -142.000 TD 25 -1 12.2000 -142.000 1 25 10 257
1988265N12218 1988 84 EP CP WILA 1988-09-21 03:00:00 TS 12.0909 -142.498 main 1554 1515 P_________P___ CP021988 12.0800 -142.483 TD 25 -1 12.1342 -142.588 1 25 10 259
1988265N12218 1988 84 EP CP WILA 1988-09-21 06:00:00 TS 12.0148 -143.008 25 hurdat_epa main 1515 1471 O_________P___ hurdat_epa CP021988 12.0000 -143.000 TD 25 -1 12.0740 -143.140 1 25 10 264
1988265N12218 1988 84 EP CP WILA 1988-09-21 09:00:00 TS 11.9934 -143.520 main 1471 1436 P_________P___ CP021988 11.9851 -143.552 TD 25 -1 12.0269 -143.623 1 25 9 269
1988265N12218 1988 84 EP CP WILA 1988-09-21 12:00:00 TS 12.0000 -143.940 25 hurdat_epa main 1436 1410 O_________O___ hurdat_epa CP021988 12.0000 -144.000 TD 25 -1 12.0000 -144.000 1 25 6 270
1988265N12218 1988 84 EP CP WILA 1988-09-21 15:00:00 TS 11.9936 -144.173 main 1410 1402 P_________P___ CP021988 11.9923 -144.195 TD 25 -1 11.9987 -144.252 1 25 4 271
1988265N12218 1988 84 EP CP WILA 1988-09-21 18:00:00 TS 12.0038 -144.323 25 hurdat_epa main 1402 1385 O_________P___ hurdat_epa CP021988 12.0000 -144.300 TD 25 -1 12.0192 -144.417 1 25 3 279
1988265N12218 1988 84 EP CP WILA 1988-09-21 21:00:00 TS 12.0450 -144.496 main 1385 1361 P_________P___ CP021988 12.0425 -144.478 TD 25 -1 12.0551 -144.549 1 25 4 285
1988265N12218 1988 84 EP CP WILA 1988-09-22 00:00:00 TS 12.1000 -144.700 25 hurdat_epa main 1361 1335 O_________O___ hurdat_epa CP021988 12.1000 -144.700 TD 25 -1 12.1000 -144.700 1 25 5 282
1988265N12218 1988 84 EP CP WILA 1988-09-22 03:00:00 TS 12.1453 -144.982 main 1335 1303 P_________P___ CP021988 12.1500 -144.993 TD 25 -1 12.1266 -144.942 1 25 6 279
1988265N12218 1988 84 EP CP WILA 1988-09-22 06:00:00 TS 12.1925 -145.283 25 hurdat_epa main 1303 1286 O_________P___ hurdat_epa CP021988 12.2000 -145.300 TD 25 -1 12.1625 -145.213 1 25 6 279
1988265N12218 1988 84 EP CP WILA 1988-09-22 09:00:00 TS 12.2374 -145.546 main 1286 1254 P_________P___ CP021988 12.2425 -145.558 TD 25 -1 12.2172 -145.502 1 25 5 282
1988265N12218 1988 84 EP CP WILA 1988-09-22 12:00:00 TS 12.3000 -145.800 25 hurdat_epa main 1254 1231 O_________O___ hurdat_epa CP021988 12.3000 -145.800 TD 25 -1 12.3000 -145.800 1 25 5 286
1988265N12218 1988 84 EP CP WILA 1988-09-22 15:00:00 TS 12.3805 -146.049 main 1231 1199 P_________P___ CP021988 12.3774 -146.035 TD 25 -1 12.3928 -146.105 1 25 6 292
1988265N12218 1988 84 EP CP WILA 1988-09-22 18:00:00 TS 12.5035 -146.323 25 hurdat_epa main 1199 1160 O_________P___ hurdat_epa CP021988 12.5000 -146.300 TD 25 -1 12.5176 -146.415 1 25 7 296
1988265N12218 1988 84 EP CP WILA 1988-09-22 21:00:00 TS 12.6727 -146.658 main 1152 1112 P_________P___ CP021988 12.6700 -146.643 TD 25 -1 12.6835 -146.718 1 25 8 301
1988265N12218 1988 84 EP CP WILA 1988-09-23 00:00:00 TS 12.9000 -147.000 25 hurdat_epa main 1112 1066 O_________O___ hurdat_epa CP021988 12.9000 -147.000 TD 25 -1 12.9000 -147.000 1 25 8 308
1988265N12218 1988 84 EP CP WILA 1988-09-23 03:00:00 TS 13.1729 -147.322 main 1066 1019 P_________P___ CP021988 13.1775 -147.330 TD 25 -1 13.1544 -147.291 1 25 8 316
1988265N12218 1988 84 EP CP WILA 1988-09-23 06:00:00 TS 13.4920 -147.591 25 hurdat_epa main 1019 981 O_________P___ hurdat_epa CP021988 13.5000 -147.600 TD 25 -1 13.4601 -147.554 1 25 8 326
1988265N12218 1988 84 EP CP WILA 1988-09-23 09:00:00 TS 13.8286 -147.783 main 981 943 P_________P___ CP021988 13.8350 -147.788 TD 25 -1 13.8107 -147.766 1 25 8 337
1988265N12218 1988 84 EP CP WILA 1988-09-23 12:00:00 TS 14.2000 -147.900 25 hurdat_epa main 943 907 O_________O___ hurdat_epa CP021988 14.2000 -147.900 TD 25 -1 14.2000 -147.900 1 25 8 346
1988265N12218 1988 84 EP CP WILA 1988-09-23 15:00:00 TS 14.6068 -147.986 main 907 880 P_________P___ CP021988 14.5775 -147.995 TD 25 -1 14.6667 -147.950 1 25 9 354
1988265N12218 1988 84 EP CP WILA 1988-09-23 18:00:00 TS 15.0520 -147.984 25 hurdat_epa main 873 857 O_________P___ hurdat_epa CP021988 15.0000 -148.000 TD 25 -1 15.1598 -147.921 1 25 10 7
1988265N12218 1988 84 EP CP WILA 1988-09-23 21:00:00 TS 15.5646 -147.870 main 851 843 P_________P___ CP021988 15.5375 -147.880 TD 25 -1 15.6230 -147.831 1 25 10 16
1988265N12218 1988 84 EP CP WILA 1988-09-24 00:00:00 TS 16.0000 -147.700 25 hurdat_epa main 847 842 O_________O___ hurdat_epa CP021988 16.0000 -147.700 TD 25 -1 16.0000 -147.700 1 25 7 24
1988265N12218 1988 84 EP CP WILA 1988-09-24 03:00:00 TS 16.2201 -147.565 main 846 846 P_________P___ CP021988 16.2100 -147.557 TD 25 -1 16.2182 -147.597 1 25 4 40
1988265N12218 1988 84 EP CP WILA 1988-09-24 06:00:00 TS 16.3294 -147.411 25 hurdat_epa main 860 856 O_________P___ hurdat_epa CP021988 16.3000 -147.400 TD 25 -1 16.3470 -147.455 1 25 4 56
1988265N12218 1988 84 EP CP WILA 1988-09-24 09:00:00 TS 16.4238 -147.251 main 865 865 P_________P___ CP021988 16.3923 -147.252 TD 25 -1 16.4274 -147.260 1 25 4 64
1988265N12218 1988 84 EP CP WILA 1988-09-24 12:00:00 TS 16.5200 -147.000 25 hurdat_epa main 890 890 O_________O___ hurdat_epa CP021988 16.5000 -147.000 TD 25 -1 16.5000 -147.000 1 25 7 68
1988265N12218 1988 84 EP CP WILA 1988-09-24 15:00:00 TS 16.6915 -146.556 main 921 921 P_________P___ CP021988 16.7078 -146.515 TD 25 -1 16.6340 -146.604 1 27 10 69
1988265N12218 1988 84 EP CP WILA 1988-09-24 18:00:00 TS 16.8532 -146.071 25 hurdat_epa main 963 963 O_________P___ hurdat_epa CP021988 16.9000 -146.000 TD 25 -1 16.7662 -146.156 1 30 9 73
1988265N12218 1988 84 EP CP WILA 1988-09-24 21:00:00 TS 16.9370 -145.693 main 1004 1004 P_________P___ CP021988 16.9648 -145.655 TD 30 -1 16.8902 -145.729 1 32 7 77
1988265N12218 1988 84 EP CP WILA 1988-09-25 00:00:00 TS 17.0000 -145.400 35 hurdat_epa main 1031 1031 O_________O___ hurdat_epa CP021988 17.0000 -145.400 TS 35 0 17.0000 -145.400 2 35 5 72
1988265N12218 1988 84 EP CP WILA 1988-09-25 03:00:00 TS 17.1002 -145.152 main 1048 1048 P_________P___ CP021988 17.1000 -145.133 TS 35 0 17.0937 -145.245 2 35 4 61
1988265N12218 1988 84 EP CP WILA 1988-09-25 06:00:00 TS 17.1947 -145.039 35 hurdat_epa main 1065 1052 O_________P___ hurdat_epa CP021988 17.2000 -145.000 TS 35 0 17.1733 -145.196 2 35 2 0
1988265N12218 1988 84 EP CP WILA 1988-09-25 09:00:00 TS 17.2543 -145.129 main 1052 1032 P_________P___ CP021988 17.2575 -145.105 TS 35 0 17.2413 -145.225 2 35 3 293
1988265N12218 1988 84 EP CP WILA 1988-09-25 12:00:00 TS 17.3000 -145.300 35 hurdat_epa main 1032 1021 O_________O___ hurdat_epa CP021988 17.3000 -145.300 TS 35 0 17.3000 -145.300 2 35 3 289
1988265N12218 1988 84 EP CP WILA 1988-09-25 15:00:00 TS 17.3483 -145.421 main 1021 1008 P_________P___ CP021988 17.3475 -145.428 TS 30 -1 17.3518 -145.396 2 30 2 298
1988265N12218 1988 84 EP CP WILA 1988-09-25 18:00:00 TS 17.4000 -145.500 25 hurdat_epa main 1008 O_________O___ hurdat_epa CP021988 17.4000 -145.500 TD 25 -1 17.4000 -145.500 1 25 2 302

About IBTrACS Database

This database is a web-friendly format of International Best Track Archive for Climate Stewardship (IBTrACS), a global best track data archive curated by NOAA dating back to 1842.

Updated: 2021-11-26